Time;durP1;ratioP1;P1;durP2;ratioP2;P2;SDS_P1;SDS_P2;PMS_P1;PMS_P2;Temp;Humidity;BMP_temperature;BMP_pressure;BME280_temperature;BME280_humidity;BME280_pressure;Samples;Min_cycle;Max_cycle;Signal;HPM_P1;HPM_P2
2023/08/21 00:00:48;;;;;;;1.55;1.40;;;16.10;1.00;;;;;;6162289;23;20465;-87
2023/08/21 00:03:17;;;;;;;4.32;2.50;;;16.10;1.00;;;;;;6138840;23;20020;-87
2023/08/21 00:05:46;;;;;;;1.80;1.65;;;15.20;1.00;;;;;;6187669;23;20092;-87
2023/08/21 00:08:11;;;;;;;2.42;1.48;;;15.20;1.00;;;;;;6162995;23;20025;-87
2023/08/21 00:10:38;;;;;;;2.80;1.42;;;15.20;1.00;;;;;;6164147;23;20070;-86
2023/08/21 00:13:09;;;;;;;2.42;1.80;;;16.10;1.00;;;;;;6187335;23;20048;-87
2023/08/21 00:15:37;;;;;;;2.20;1.52;;;16.10;1.00;;;;;;6163248;23;20024;-87
2023/08/21 00:18:08;;;;;;;2.15;1.52;;;16.10;1.00;;;;;;6187120;23;20059;-86
2023/08/21 00:20:34;;;;;;;1.63;1.52;;;16.00;1.00;;;;;;6163047;23;20071;-88
2023/08/21 00:23:00;;;;;;;3.10;2.17;;;16.00;1.00;;;;;;6187780;23;20385;-86
2023/08/21 00:25:28;;;;;;;7.20;2.40;;;16.00;1.00;;;;;;6138749;23;20016;-87
2023/08/21 00:27:54;;;;;;;3.63;1.98;;;14.90;1.00;;;;;;6161354;23;20063;-88
2023/08/21 00:30:20;;;;;;;3.72;2.30;;;15.90;1.00;;;;;;6187458;23;20020;-87
2023/08/21 00:32:46;;;;;;;2.70;1.60;;;15.80;1.00;;;;;;6188956;23;20013;-87
2023/08/21 00:35:16;;;;;;;5.07;2.10;;;15.80;1.00;;;;;;6162472;23;20353;-87
2023/08/21 00:37:42;;;;;;;1.98;1.75;;;15.90;1.00;;;;;;6139685;23;20028;-87
2023/08/21 00:40:08;;;;;;;3.58;2.40;;;15.80;1.00;;;;;;6161921;23;20024;-87
2023/08/21 00:42:34;;;;;;;3.83;1.80;;;16.80;1.00;;;;;;6186329;23;20016;-87
2023/08/21 00:45:08;;;;;;;2.75;1.90;;;16.00;1.00;;;;;;6161750;23;20017;-88
2023/08/21 00:47:37;;;;;;;3.85;2.33;;;15.00;1.00;;;;;;6162023;23;20031;-87
2023/08/21 00:50:06;;;;;;;2.33;1.70;;;15.70;1.00;;;;;;6161282;23;20079;-87
2023/08/21 00:52:52;;;;;;;;;;;;;;;;;;;;;
2023/08/21 00:55:19;;;;;;;2.35;1.08;;;15.50;1.00;;;;;;6187519;23;20040;-87
2023/08/21 00:57:45;;;;;;;1.00;0.90;;;15.50;1.00;;;;;;6162207;23;20461;-87
2023/08/21 01:00:23;;;;;;;1.98;1.08;;;15.40;1.00;;;;;;6162096;23;20016;-86
2023/08/21 01:02:58;;;;;;;1.50;1.30;;;15.40;1.00;;;;;;6163489;23;20016;-86
2023/08/21 01:05:27;;;;;;;3.38;1.63;;;15.30;1.00;;;;;;6188438;23;20513;-86
2023/08/21 01:08:14;;;;;;;3.53;1.77;;;15.40;1.00;;;;;;6164304;23;20019;-87
2023/08/21 01:11:02;;;;;;;;;;;15.40;1.00;;;;;;6188927;23;20019;-87
2023/08/21 01:13:34;;;;;;;3.35;1.65;;;15.30;11.40;;;;;;6189586;23;19916;-87
2023/08/21 01:16:04;;;;;;;1.88;1.48;;;15.20;1.00;;;;;;6188090;23;20016;-87
2023/08/21 01:18:41;;;;;;;;;;;;;;;;;;;;;
2023/08/21 01:21:08;;;;;;;1.50;1.30;;;15.20;1.00;;;;;;6187920;23;20028;-86
2023/08/21 01:23:37;;;;;;;2.80;1.50;;;15.20;1.00;;;;;;6188738;23;20078;-89
2023/08/21 01:26:04;;;;;;;2.33;1.63;;;15.10;1.00;;;;;;6187740;23;20355;-87
2023/08/21 01:28:34;;;;;;;1.95;1.38;;;15.10;1.00;;;;;;6164418;23;20457;-86
2023/08/21 01:31:15;;;;;;;2.63;1.60;;;14.80;1.00;;;;;;6189017;23;20015;-87
2023/08/21 01:33:47;;;;;;;3.97;1.73;;;15.00;1.00;;;;;;6164119;23;20028;-88
2023/08/21 01:36:14;;;;;;;1.52;1.42;;;15.00;1.00;;;;;;6163605;23;20099;-87
2023/08/21 01:38:41;;;;;;;1.77;1.40;;;15.00;1.00;;;;;;6188075;23;20078;-86
2023/08/21 01:41:10;;;;;;;1.52;1.38;;;15.00;1.00;;;;;;6188260;23;20017;-87
2023/08/21 01:43:36;;;;;;;1.58;1.23;;;15.00;1.00;;;;;;6189168;23;20052;-86
2023/08/21 01:46:03;;;;;;;3.20;1.65;;;15.00;1.00;;;;;;6187691;23;20360;-87
2023/08/21 01:48:46;;;;;;;1.33;1.15;;;15.00;1.00;;;;;;6163579;23;20056;-87
2023/08/21 01:51:12;;;;;;;1.83;1.30;;;14.20;1.00;;;;;;6163394;23;20063;-87
2023/08/21 01:53:40;;;;;;;2.67;1.70;;;14.90;1.00;;;;;;6164398;23;20025;-85
2023/08/21 01:56:06;;;;;;;1.60;1.10;;;14.20;1.00;;;;;;6188399;23;20019;-87
2023/08/21 01:58:32;;;;;;;2.30;1.10;;;14.80;1.00;;;;;;6163972;23;20407;-87
2023/08/21 02:00:58;;;;;;;4.23;1.97;;;14.80;1.00;;;;;;6188321;23;20250;-87
2023/08/21 02:03:30;;;;;;;2.63;1.30;;;14.80;1.00;;;;;;6163079;23;20252;-87
2023/08/21 02:06:06;;;;;;;1.33;1.10;;;14.70;1.00;;;;;;6163536;23;20055;-87
2023/08/21 02:08:33;;;;;;;2.15;1.50;;;15.20;1.00;;;;;;6138231;23;20025;-86
2023/08/21 02:10:59;;;;;;;3.35;1.20;;;14.70;1.00;;;;;;6163507;23;20020;-87
2023/08/21 02:13:27;;;;;;;1.17;1.13;;;14.70;1.00;;;;;;6162878;23;20027;-87
2023/08/21 02:15:53;;;;;;;2.33;1.17;;;14.70;1.00;;;;;;6163085;23;20017;-86
2023/08/21 02:18:19;;;;;;;4.10;2.10;;;14.60;1.00;;;;;;6186512;23;20032;-87
2023/08/21 02:20:49;;;;;;;1.75;0.95;;;14.60;1.00;;;;;;6188339;23;20016;-87
2023/08/21 02:23:15;;;;;;;2.78;1.45;;;14.70;1.00;;;;;;6162962;23;20079;-86
2023/08/21 02:25:41;;;;;;;1.75;1.30;;;14.60;1.00;;;;;;6214744;23;20009;-86
2023/08/21 02:28:10;;;;;;;3.35;1.50;;;14.60;1.00;;;;;;6187541;23;20095;-86
2023/08/21 02:30:42;;;;;;;2.70;1.52;;;14.60;1.00;;;;;;6164131;23;20091;-86
2023/08/21 02:33:08;;;;;;;2.60;1.63;;;14.50;1.00;;;;;;6139143;23;20095;-87
2023/08/21 02:35:36;;;;;;;2.35;1.40;;;14.40;1.00;;;;;;6187931;23;20048;-86
2023/08/21 02:38:07;;;;;;;1.33;1.23;;;14.50;1.00;;;;;;6139329;23;20042;-89
2023/08/21 02:40:36;;;;;;;2.25;1.58;;;14.40;1.00;;;;;;6139560;23;20028;-86
2023/08/21 02:43:02;;;;;;;1.92;1.40;;;14.50;1.00;;;;;;6140021;23;20024;-86
2023/08/21 02:45:30;;;;;;;2.65;1.33;;;14.40;1.00;;;;;;6162240;23;20021;-86
2023/08/21 02:48:01;;;;;;;2.00;1.40;;;14.30;1.00;;;;;;6186954;23;20016;-87
2023/08/21 02:50:26;;;;;;;3.22;1.50;;;14.40;1.00;;;;;;6162070;23;20047;-86
2023/08/21 02:52:57;;;;;;;1.40;1.30;;;14.40;1.00;;;;;;6188193;23;20342;-86
2023/08/21 02:55:35;;;;;;;2.30;1.30;;;14.30;1.00;;;;;;6138811;23;20468;-87
2023/08/21 02:58:06;;;;;;;1.60;1.48;;;13.90;1.00;;;;;;6139913;23;20027;-86
2023/08/21 03:00:37;;;;;;;4.38;1.20;;;14.30;1.00;;;;;;6188224;23;20377;-85
2023/08/21 03:03:04;;;;;;;2.00;1.27;;;14.30;1.00;;;;;;6188829;23;20016;-86
2023/08/21 03:05:32;;;;;;;2.35;1.30;;;14.30;1.00;;;;;;6187683;23;20059;-86
2023/08/21 03:07:58;;;;;;;3.50;1.17;;;14.40;1.00;;;;;;6188306;23;20071;-85
2023/08/21 03:10:27;;;;;;;1.63;1.25;;;14.30;1.00;;;;;;6187959;23;20381;-86
2023/08/21 03:12:55;;;;;;;3.45;1.50;;;14.20;1.00;;;;;;6164076;23;20087;-86
2023/08/21 03:15:21;;;;;;;4.05;1.83;;;14.10;1.00;;;;;;6162767;23;20021;-86
2023/08/21 03:17:46;;;;;;;2.42;1.38;;;14.10;1.00;;;;;;6163208;23;20410;-86
2023/08/21 03:20:12;;;;;;;2.53;2.28;;;13.90;1.00;;;;;;6162375;23;20024;-86
2023/08/21 03:22:38;;;;;;;3.33;2.00;;;13.90;1.00;;;;;;6189186;23;20027;-86
2023/08/21 03:25:07;;;;;;;1.57;0.70;;;13.90;1.00;;;;;;6138790;23;20023;-86
2023/08/21 03:27:33;;;;;;;3.42;1.65;;;13.80;1.00;;;;;;6182416;23;20358;-86
2023/08/21 03:30:00;;;;;;;2.40;1.27;;;13.90;1.00;;;;;;6182559;23;20017;-86
2023/08/21 03:32:26;;;;;;;2.10;1.38;;;13.90;1.00;;;;;;6183989;23;20377;-86
2023/08/21 03:34:54;;;;;;;5.50;1.27;;;13.00;1.00;;;;;;6157851;23;20020;-86
2023/08/21 03:37:20;;;;;;;1.48;1.17;;;13.90;1.00;;;;;;6157379;23;20021;-86
2023/08/21 03:39:51;;;;;;;1.60;1.38;;;13.80;1.00;;;;;;6184346;23;20108;-86
2023/08/21 03:42:17;;;;;;;4.88;1.67;;;13.80;1.00;;;;;;6182067;23;20028;-86
2023/08/21 03:44:43;;;;;;;2.65;1.38;;;13.70;1.00;;;;;;6182684;23;20025;-86
2023/08/21 03:47:09;;;;;;;5.03;1.95;;;13.70;1.00;;;;;;6157791;23;20021;-86
2023/08/21 03:49:35;;;;;;;4.05;1.60;;;14.70;1.00;;;;;;6181238;23;20075;-86
2023/08/21 03:52:04;;;;;;;3.22;2.00;;;13.70;1.00;;;;;;6157651;23;20017;-86
2023/08/21 03:54:29;;;;;;;4.03;1.42;;;13.70;1.00;;;;;;6132945;23;20021;-85
2023/08/21 03:56:55;;;;;;;3.40;1.80;;;14.50;3.10;;;;;;6157711;23;20025;-86
2023/08/21 03:59:22;;;;;;;2.37;1.40;;;13.70;3.90;;;;;;6181765;23;20429;-86
2023/08/21 04:01:51;;;;;;;1.75;1.30;;;13.70;5.30;;;;;;6133516;23;20574;-86
2023/08/21 04:04:17;;;;;;;3.33;1.65;;;12.70;4.20;;;;;;6157221;23;20021;-88
2023/08/21 04:06:42;;;;;;;3.60;1.48;;;13.70;1.90;;;;;;6182859;23;20017;-86
2023/08/21 04:09:11;;;;;;;1.63;1.40;;;13.70;1.00;;;;;;6182784;23;20021;-85
2023/08/21 04:11:39;;;;;;;4.45;1.50;;;13.80;1.00;;;;;;6157805;23;20110;-86
2023/08/21 04:14:05;;;;;;;2.45;2.25;;;13.60;1.00;;;;;;6183230;23;20017;-86
2023/08/21 04:16:31;;;;;;;1.70;1.60;;;13.60;1.00;;;;;;6182727;23;20043;-86
2023/08/21 04:18:59;;;;;;;2.45;1.45;;;13.60;1.00;;;;;;6134494;23;20088;-86
2023/08/21 04:21:25;;;;;;;3.03;1.60;;;13.50;1.00;;;;;;6158048;23;20467;-85
2023/08/21 04:23:53;;;;;;;1.67;1.58;;;13.50;1.10;;;;;;6158192;23;20099;-86
2023/08/21 04:26:22;;;;;;;2.78;1.30;;;13.50;2.20;;;;;;6182679;23;20017;-86
2023/08/21 04:28:50;;;;;;;3.70;1.70;;;13.60;1.00;;;;;;6182940;23;20014;-85
2023/08/21 04:31:20;;;;;;;2.08;1.60;;;13.50;1.00;;;;;;6158221;23;20864;-85
2023/08/21 04:33:46;;;;;;;2.63;1.48;;;13.30;1.00;;;;;;6182691;23;20049;-86
2023/08/21 04:36:18;;;;;;;2.33;1.60;;;13.40;1.00;;;;;;6158025;23;20013;-86
2023/08/21 04:38:44;;;;;;;3.97;1.60;;;12.70;1.00;;;;;;6157268;23;20438;-86
2023/08/21 04:41:13;;;;;;;7.53;2.07;;;13.30;1.80;;;;;;6183729;23;20103;-86
2023/08/21 04:43:38;;;;;;;2.22;1.70;;;13.40;5.90;;;;;;6183822;23;20047;-87
2023/08/21 04:46:05;;;;;;;3.33;1.60;;;13.40;7.80;;;;;;6184519;23;20346;-85
2023/08/21 04:48:38;;;;;;;2.88;1.75;;;13.40;8.90;;;;;;6183955;23;20092;-86
2023/08/21 04:51:04;;;;;;;2.88;1.55;;;13.40;9.10;;;;;;6134614;23;20021;-86
2023/08/21 04:53:30;;;;;;;2.43;1.50;;;13.40;8.40;;;;;;6183938;23;20028;-86
2023/08/21 04:56:01;;;;;;;3.58;1.92;;;13.40;6.00;;;;;;6135977;23;20264;-86
2023/08/21 04:58:27;;;;;;;15.75;2.63;;;12.80;5.20;;;;;;6159062;23;20025;-86
2023/08/21 05:00:53;;;;;;;4.40;1.92;;;13.40;7.00;;;;;;6159686;23;20398;-86
2023/08/21 05:03:21;;;;;;;2.20;1.40;;;13.40;8.50;;;;;;6135135;23;20092;-86
2023/08/21 05:05:54;;;;;;;2.88;1.70;;;13.40;10.90;;;;;;6159318;23;20037;-87
2023/08/21 05:08:28;;;;;;;7.57;2.22;;;13.50;14.10;;;;;;6183571;23;20056;-88
2023/08/21 05:11:02;;;;;;;5.88;1.98;;;13.40;14.90;;;;;;6136318;23;20096;-86
2023/08/21 05:13:31;;;;;;;2.88;1.80;;;13.90;17.90;;;;;;6183360;23;20017;-89
2023/08/21 05:15:57;;;;;;;6.88;2.50;;;13.50;19.30;;;;;;6184285;23;20024;-87
2023/08/21 05:18:24;;;;;;;2.95;1.55;;;13.60;22.30;;;;;;6183434;23;20031;-87
2023/08/21 05:20:56;;;;;;;4.95;2.20;;;13.60;23.70;;;;;;6155801;23;20024;-86
2023/08/21 05:23:39;;;;;;;3.88;2.00;;;13.60;25.00;;;;;;6187144;23;20021;-89
2023/08/21 05:26:13;;;;;;;2.10;1.80;;;13.80;29.80;;;;;;6158498;23;20025;-88
2023/08/21 05:28:41;;;;;;;3.63;1.60;;;13.80;30.00;;;;;;6159914;23;20100;-88
2023/08/21 05:31:12;;;;;;;4.45;1.95;;;13.90;30.70;;;;;;6184706;23;20025;-88
2023/08/21 05:33:38;;;;;;;3.45;1.60;;;14.00;29.80;;;;;;6134155;23;20017;-88
2023/08/21 05:36:05;;;;;;;6.90;1.85;;;14.30;27.70;;;;;;6160699;23;20013;-87
2023/08/21 05:38:31;;;;;;;2.85;1.63;;;14.40;24.40;;;;;;6184488;23;20028;-84
2023/08/21 05:41:00;;;;;;;2.88;1.83;;;14.70;20.80;;;;;;6133910;23;20078;-87
2023/08/21 05:43:26;;;;;;;2.42;2.22;;;15.00;17.50;;;;;;6158674;23;20501;-91
2023/08/21 05:45:52;;;;;;;4.00;2.17;;;15.20;14.80;;;;;;6182170;23;20064;-85
2023/08/21 05:48:18;;;;;;;4.33;2.37;;;15.40;11.60;;;;;;6159283;23;20028;-85
2023/08/21 05:50:44;;;;;;;3.00;2.00;;;15.60;10.70;;;;;;6182546;23;20253;-86
2023/08/21 05:53:09;;;;;;;3.28;1.92;;;15.70;9.60;;;;;;6158177;23;20075;-85
2023/08/21 05:55:38;;;;;;;2.92;1.65;;;15.80;8.30;;;;;;6158473;23;20013;-86
2023/08/21 05:58:04;;;;;;;5.07;2.10;;;16.00;4.80;;;;;;6183735;23;20075;-86
2023/08/21 06:00:32;;;;;;;5.47;2.10;;;16.10;1.50;;;;;;6158664;23;20448;-90
2023/08/21 06:02:58;;;;;;;3.25;2.08;;;16.20;2.30;;;;;;6159205;23;20245;-85
2023/08/21 06:05:24;;;;;;;6.32;2.67;;;16.40;2.40;;;;;;6159843;23;20013;-83
2023/08/21 06:08:01;;;;;;;2.97;2.10;;;16.60;3.60;;;;;;6158783;23;20024;-92
2023/08/21 06:10:33;;;;;;;4.00;2.67;;;16.10;4.70;;;;;;6183679;23;20024;-90
2023/08/21 06:13:09;;;;;;;;;;;;;;;;;;;;;
2023/08/21 06:15:45;;;;;;;3.97;2.50;;;17.00;9.10;;;;;;6182962;23;20485;-89
2023/08/21 06:18:16;;;;;;;3.33;2.05;;;17.70;10.60;;;;;;6158647;23;20056;-90
2023/08/21 06:20:57;;;;;;;;;;;;;;;;;;;;;
2023/08/21 06:23:30;;;;;;;6.00;3.08;;;16.90;21.80;;;;;;6161477;23;20024;-89
2023/08/21 06:25:59;;;;;;;4.82;3.55;;;17.70;22.30;;;;;;6182837;23;20458;-90
2023/08/21 06:28:30;;;;;;;4.35;2.55;;;17.70;23.80;;;;;;6158333;23;20109;-89
2023/08/21 06:31:03;;;;;;;8.43;3.55;;;17.90;30.00;;;;;;6159335;23;20017;-88
2023/08/21 06:33:28;;;;;;;11.82;3.40;;;18.00;33.50;;;;;;6158529;23;20021;-88
2023/08/21 06:35:54;;;;;;;5.57;3.00;;;18.10;30.70;;;;;;6157522;23;20017;-88
2023/08/21 06:38:20;;;;;;;5.18;2.70;;;18.30;29.70;;;;;;6159421;23;20029;-89
2023/08/21 06:40:46;;;;;;;5.00;2.70;;;18.30;29.90;;;;;;6158003;23;20021;-89
2023/08/21 06:43:12;;;;;;;5.75;2.67;;;17.80;34.00;;;;;;6158531;23;20021;-80
2023/08/21 06:45:37;;;;;;;9.27;2.78;;;18.60;35.70;;;;;;6183184;23;20442;-86
2023/08/21 06:48:03;;;;;;;4.57;2.70;;;18.60;37.70;;;;;;6157321;23;20064;-86
2023/08/21 06:50:30;;;;;;;6.05;2.15;;;18.80;36.80;;;;;;6156471;23;20021;-86
2023/08/21 06:52:55;;;;;;;15.85;3.33;;;19.00;36.90;;;;;;6182423;23;20229;-85
2023/08/21 06:55:21;;;;;;;5.75;2.50;;;19.10;34.60;;;;;;6133214;23;20028;-86
2023/08/21 06:57:47;;;;;;;3.80;1.90;;;19.60;31.20;;;;;;6154363;23;20024;-84
2023/08/21 07:00:13;;;;;;;5.68;2.10;;;19.40;28.50;;;;;;6131896;23;20028;-84
2023/08/21 07:02:39;;;;;;;7.80;2.40;;;19.60;25.00;;;;;;6181671;23;20111;-84
2023/08/21 07:05:10;;;;;;;5.28;2.55;;;19.70;20.90;;;;;;6183690;23;20056;-84
2023/08/21 07:07:39;;;;;;;5.20;1.80;;;19.80;7.00;;;;;;6183614;23;20437;-84
2023/08/21 07:10:05;;;;;;;6.60;2.33;;;19.80;3.80;;;;;;6183548;23;20342;-83
2023/08/21 07:12:33;;;;;;;5.80;2.03;;;18.90;1.00;;;;;;6183680;23;20080;-83
2023/08/21 07:14:59;;;;;;;4.43;1.77;;;20.00;1.00;;;;;;6158273;23;20063;-84
2023/08/21 07:17:26;;;;;;;4.25;2.30;;;20.00;1.00;;;;;;6183291;23;20013;-83
2023/08/21 07:19:52;;;;;;;7.65;2.13;;;20.10;1.00;;;;;;6157525;23;20074;-84
2023/08/21 07:22:19;;;;;;;5.00;2.00;;;20.10;1.00;;;;;;6183598;23;20021;-84
2023/08/21 07:24:45;;;;;;;13.10;3.47;;;20.10;1.00;;;;;;6182891;23;20017;-84
2023/08/21 07:27:11;;;;;;;4.75;1.90;;;20.10;1.00;;;;;;6133685;23;20083;-84
2023/08/21 07:29:36;;;;;;;3.05;1.55;;;20.30;1.00;;;;;;6182746;23;20084;-83
2023/08/21 07:32:02;;;;;;;3.97;1.80;;;20.30;1.00;;;;;;6182844;23;20020;-83
2023/08/21 07:34:28;;;;;;;7.75;1.80;;;20.40;1.00;;;;;;6183701;23;20036;-84
2023/08/21 07:36:54;;;;;;;6.63;1.98;;;20.40;1.00;;;;;;6181133;23;20013;-84
2023/08/21 07:39:20;;;;;;;4.47;1.10;;;20.50;1.00;;;;;;6182733;23;20024;-84
2023/08/21 07:41:46;;;;;;;4.30;1.90;;;20.50;1.00;;;;;;6182882;23;20520;-84
2023/08/21 07:44:11;;;;;;;2.83;1.60;;;20.50;1.00;;;;;;6183020;23;20044;-84
2023/08/21 07:46:42;;;;;;;3.75;1.25;;;20.60;1.00;;;;;;6184822;23;20021;-83
2023/08/21 07:49:15;;;;;;;5.80;1.38;;;20.70;1.00;;;;;;6133828;23;20028;-84
2023/08/21 07:51:44;;;;;;;6.78;1.92;;;20.70;1.00;;;;;;6183603;23;20017;-83
2023/08/21 07:54:12;;;;;;;5.60;1.58;;;20.80;1.00;;;;;;6183381;23;20378;-84
2023/08/21 07:56:41;;;;;;;3.75;1.50;;;20.90;1.00;;;;;;6159180;23;20017;-83
2023/08/21 07:59:13;;;;;;;2.90;1.52;;;20.90;1.00;;;;;;6183230;23;20025;-83
2023/08/21 08:01:41;;;;;;;5.15;2.08;;;20.90;1.00;;;;;;6183015;23;20025;-84
2023/08/21 08:04:08;;;;;;;5.53;1.70;;;20.80;1.00;;;;;;6182788;23;20092;-85
2023/08/21 08:06:36;;;;;;;6.72;1.73;;;21.00;1.00;;;;;;6158170;23;20072;-84
2023/08/21 08:09:04;;;;;;;5.78;2.00;;;21.00;1.00;;;;;;6158274;23;20052;-84
2023/08/21 08:11:30;;;;;;;4.03;2.00;;;21.00;1.00;;;;;;6185640;23;20025;-83
2023/08/21 08:13:56;;;;;;;3.97;1.60;;;21.10;1.00;;;;;;6184574;23;20017;-84
2023/08/21 08:16:22;;;;;;;3.00;1.55;;;21.20;1.00;;;;;;6160723;23;20021;-84
2023/08/21 08:18:50;;;;;;;3.88;1.45;;;20.40;1.00;;;;;;6186582;23;20017;-85
2023/08/21 08:21:16;;;;;;;2.88;1.60;;;20.50;1.00;;;;;;6186460;23;20017;-84
2023/08/21 08:23:42;;;;;;;3.15;1.80;;;21.40;1.00;;;;;;6187288;23;20088;-84
2023/08/21 08:26:10;;;;;;;3.92;1.30;;;21.40;1.00;;;;;;6162277;23;20020;-84
2023/08/21 08:28:35;;;;;;;1.70;1.48;;;21.40;1.00;;;;;;6188738;23;20048;-84
2023/08/21 08:31:01;;;;;;;3.42;1.40;;;21.40;1.00;;;;;;6163208;23;20017;-84
2023/08/21 08:33:33;;;;;;;4.22;1.85;;;21.50;1.00;;;;;;6163454;23;20017;-83
2023/08/21 08:35:58;;;;;;;3.35;1.33;;;21.70;99.90;;;;;;6135038;23;20087;-84
2023/08/21 08:38:24;;;;;;;4.25;1.33;;;21.80;99.90;;;;;;6161196;23;20457;-84
2023/08/21 08:40:53;;;;;;;2.25;1.23;;;22.00;99.90;;;;;;6185259;23;20024;-85
2023/08/21 08:43:22;;;;;;;3.17;1.42;;;21.90;99.90;;;;;;6185848;23;20048;-84
2023/08/21 08:45:50;;;;;;;3.15;1.05;;;21.90;99.90;;;;;;6185530;23;20057;-85
2023/08/21 08:48:17;;;;;;;1.83;1.30;;;21.10;99.90;;;;;;6185023;23;20327;-84
2023/08/21 08:50:43;;;;;;;3.45;1.27;;;22.00;99.90;;;;;;6162308;23;20113;-83
2023/08/21 08:53:10;;;;;;;5.10;1.48;;;22.10;99.90;;;;;;6187742;23;20020;-84
2023/08/21 08:55:36;;;;;;;3.75;1.40;;;22.10;99.90;;;;;;6162489;23;20402;-84
2023/08/21 08:58:05;;;;;;;3.63;1.40;;;21.80;99.90;;;;;;6185515;23;20075;-84
2023/08/21 09:00:31;;;;;;;3.70;1.20;;;22.00;99.90;;;;;;6161262;23;20021;-84
2023/08/21 09:03:06;;;;;;;4.88;1.20;;;22.00;99.90;;;;;;6186454;23;20406;-84
2023/08/21 09:05:34;;;;;;;1.98;1.08;;;22.00;99.90;;;;;;6162627;23;20036;-84
2023/08/21 09:08:19;;;;;;;3.15;1.10;;;22.10;99.90;;;;;;6162659;23;20353;-84
2023/08/21 09:10:56;;;;;;;3.92;1.48;;;22.10;99.90;;;;;;6139266;23;20024;-83
2023/08/21 09:13:22;;;;;;;3.42;1.63;;;22.10;98.20;;;;;;6161814;23;20024;-83
2023/08/21 09:15:59;;;;;;;3.13;1.15;;;22.10;99.90;;;;;;6161401;23;20013;-84
2023/08/21 09:18:25;;;;;;;2.88;1.40;;;22.30;1.00;;;;;;6184882;23;20024;-84
2023/08/21 09:20:50;;;;;;;4.10;1.20;;;22.30;99.90;;;;;;6160301;23;20056;-84
2023/08/21 09:23:18;;;;;;;1.38;0.90;;;22.40;99.90;;;;;;6159336;23;20036;-84
2023/08/21 09:25:48;;;;;;;2.72;1.10;;;22.40;99.90;;;;;;6187612;23;20021;-84
2023/08/21 09:28:17;;;;;;;5.45;1.40;;;22.50;99.90;;;;;;6189034;23;20460;-84
2023/08/21 09:30:48;;;;;;;2.00;1.48;;;22.60;99.90;;;;;;6140954;23;20020;-84
2023/08/21 09:33:16;;;;;;;3.55;1.55;;;22.60;99.90;;;;;;6164891;23;20025;-84
2023/08/21 09:35:43;;;;;;;1.67;1.13;;;22.60;99.90;;;;;;6189341;23;20055;-84
2023/08/21 09:38:10;;;;;;;1.48;1.20;;;22.70;1.00;;;;;;6189770;23;20066;-84
2023/08/21 09:40:43;;;;;;;3.17;1.30;;;22.70;99.90;;;;;;6189828;23;20055;-84
2023/08/21 09:43:12;;;;;;;4.75;1.42;;;22.80;1.00;;;;;;6189292;23;20071;-84
2023/08/21 09:45:38;;;;;;;2.38;1.27;;;23.60;99.90;;;;;;6164827;23;20020;-84
2023/08/21 09:48:05;;;;;;;;;;;22.90;1.00;;;;;;6164912;23;20067;-84
2023/08/21 09:50:32;;;;;;;0.93;0.93;;;22.90;99.90;;;;;;6189888;23;19916;-84
2023/08/21 09:52:58;;;;;;;4.78;0.93;;;23.00;99.90;;;;;;6189094;23;20012;-84
2023/08/21 09:55:29;;;;;;;1.70;1.20;;;23.00;99.90;;;;;;6189472;23;20337;-84
2023/08/21 09:57:59;;;;;;;2.55;1.05;;;23.00;99.90;;;;;;6189810;23;20013;-84
2023/08/21 10:00:42;;;;;;;3.92;1.23;;;23.00;99.90;;;;;;6189731;23;20087;-84
2023/08/21 10:03:10;;;;;;;4.50;1.20;;;23.20;99.90;;;;;;6188846;23;20082;-84
2023/08/21 10:05:37;;;;;;;3.88;1.10;;;23.10;1.00;;;;;;6164230;23;20021;-84
2023/08/21 10:08:05;;;;;;;2.75;1.60;;;23.20;92.10;;;;;;6215044;23;20092;-84
2023/08/21 10:10:34;;;;;;;3.67;1.27;;;23.30;1.00;;;;;;6189711;23;20017;-84
2023/08/21 10:13:04;;;;;;;4.30;1.35;;;23.40;99.90;;;;;;6164808;23;20016;-84
2023/08/21 10:15:34;;;;;;;2.15;1.15;;;23.40;1.00;;;;;;6215793;23;20457;-84
2023/08/21 10:18:18;;;;;;;2.60;1.27;;;23.40;88.20;;;;;;6215268;23;20021;-84
2023/08/21 10:20:44;;;;;;;1.98;1.10;;;23.50;99.90;;;;;;6164492;23;20021;-83
2023/08/21 10:23:23;;;;;;;2.13;1.20;;;23.50;99.90;;;;;;6188829;23;20071;-84
2023/08/21 10:25:53;;;;;;;2.90;1.17;;;23.50;1.00;;;;;;6189330;23;20013;-84
2023/08/21 10:28:19;;;;;;;2.08;1.13;;;23.60;99.90;;;;;;6163630;23;20101;-85
2023/08/21 10:30:45;;;;;;;3.33;1.85;;;23.60;99.90;;;;;;6139750;23;20443;-87
2023/08/21 10:33:13;;;;;;;2.20;1.25;;;24.80;99.90;;;;;;6115018;23;20048;-85
2023/08/21 10:35:39;;;;;;;3.40;1.05;;;23.70;99.90;;;;;;6188390;23;20019;-85
2023/08/21 10:38:16;;;;;;;2.95;1.33;;;23.80;99.90;;;;;;6163468;23;20099;-85
2023/08/21 10:41:10;;;;;;;4.90;1.10;;;23.90;99.90;;;;;;6189390;23;20017;-85
2023/08/21 10:43:46;;;;;;;4.93;1.98;;;23.90;1.00;;;;;;6159396;23;20472;-84
2023/08/21 10:46:15;;;;;;;2.85;1.17;;;24.00;1.00;;;;;;6188456;23;20021;-85
2023/08/21 10:48:42;;;;;;;2.65;1.35;;;24.00;99.90;;;;;;6164238;23;20459;-85
2023/08/21 10:51:12;;;;;;;4.43;1.73;;;24.10;99.90;;;;;;6163947;23;20338;-84
2023/08/21 10:53:39;;;;;;;2.53;1.20;;;24.10;1.00;;;;;;6215672;23;20016;-85
2023/08/21 10:56:06;;;;;;;3.55;1.20;;;24.20;99.90;;;;;;6187192;23;20349;-87
2023/08/21 10:58:42;;;;;;;2.95;1.00;;;24.30;99.90;;;;;;6189004;23;20013;-86
2023/08/21 11:01:08;;;;;;;4.20;1.50;;;24.30;1.00;;;;;;6163610;23;20020;-86
2023/08/21 11:03:33;;;;;;;2.10;1.20;;;24.40;99.90;;;;;;6188902;23;20016;-85
2023/08/21 11:06:02;;;;;;;;;;;24.40;99.90;;;;;;6188577;23;20353;-86
2023/08/21 11:08:31;;;;;;;1.80;1.15;;;24.50;1.00;;;;;;6163068;23;19916;-85
2023/08/21 11:10:57;;;;;;;3.78;1.75;;;24.60;10.40;;;;;;6164242;23;20103;-86
2023/08/21 11:13:26;;;;;;;2.63;1.23;;;24.70;99.90;;;;;;6162988;23;20063;-87
2023/08/21 11:16:02;;;;;;;3.55;1.60;;;24.70;99.90;;;;;;6188542;23;20016;-86
2023/08/21 11:18:32;;;;;;;;;;;24.70;1.00;;;;;;6188485;23;20036;-86
2023/08/21 11:21:05;;;;;;;3.42;1.67;;;24.80;13.70;;;;;;6215148;23;19916;-86
2023/08/21 11:23:42;;;;;;;4.68;1.50;;;24.80;99.90;;;;;;6164498;23;20095;-86
2023/08/21 11:26:11;;;;;;;3.03;1.50;;;24.90;38.00;;;;;;6162823;23;20020;-87
2023/08/21 11:28:38;;;;;;;3.45;1.30;;;25.00;1.00;;;;;;6188735;23;20026;-87
2023/08/21 11:31:16;;;;;;;4.30;1.50;;;25.00;99.90;;;;;;6188406;23;20403;-89
2023/08/21 11:33:55;;;;;;;3.22;1.63;;;25.10;99.90;;;;;;6188660;23;20075;-88
2023/08/21 11:36:21;;;;;;;4.18;1.45;;;24.80;99.90;;;;;;6186532;23;20098;-88
2023/08/21 11:39:07;;;;;;;;;;;25.30;99.90;;;;;;6215562;23;20099;-87
2023/08/21 11:41:52;;;;;;;3.45;1.50;;;25.30;99.90;;;;;;6163415;23;19948;-87
2023/08/21 11:44:18;;;;;;;3.15;1.65;;;25.40;99.90;;;;;;6163405;23;20023;-87
2023/08/21 11:46:43;;;;;;;;;;;25.30;37.50;;;;;;6139557;23;20024;-84
2023/08/21 11:49:09;;;;;;;4.15;1.73;;;25.10;99.90;;;;;;6163029;23;19951;-87
2023/08/21 11:51:39;;;;;;;4.20;1.92;;;25.20;99.90;;;;;;6163876;23;20017;-84
2023/08/21 11:54:06;;;;;;;3.03;1.52;;;25.30;99.90;;;;;;6214821;23;20024;-84
2023/08/21 11:56:32;;;;;;;4.38;1.88;;;25.20;99.90;;;;;;6187500;23;20017;-84
2023/08/21 11:59:01;;;;;;;;;;;25.30;99.90;;;;;;6164381;23;20092;-85
2023/08/21 12:01:27;;;;;;;3.75;1.52;;;25.40;99.90;;;;;;6162947;23;20291;-86
2023/08/21 12:03:56;;;;;;;;;;;25.40;99.90;;;;;;6164095;23;20095;-86
2023/08/21 12:06:25;;;;;;;3.85;1.48;;;25.40;1.00;;;;;;6187364;23;19916;-85
2023/08/21 12:08:53;;;;;;;2.05;1.35;;;25.30;99.90;;;;;;6163750;23;20023;-85
2023/08/21 12:11:19;;;;;;;3.00;1.30;;;25.30;1.00;;;;;;6187624;23;20021;-84
2023/08/21 12:13:44;;;;;;;;;;;24.80;1.00;;;;;;6188694;23;20369;-84
2023/08/21 12:16:13;;;;;;;1.48;1.38;;;25.60;99.90;;;;;;6187809;23;19915;-87
2023/08/21 12:18:39;;;;;;;2.40;1.60;;;25.70;1.00;;;;;;6140520;23;20012;-85
2023/08/21 12:21:12;;;;;;;;;;;25.80;1.00;;;;;;6189007;23;20066;-85
2023/08/21 12:23:40;;;;;;;6.00;1.58;;;25.80;99.90;;;;;;6188790;23;19958;-85
2023/08/21 12:26:06;;;;;;;3.63;1.30;;;25.90;99.90;;;;;;6138434;23;20062;-85
2023/08/21 12:28:32;;;;;;;;;;;25.90;99.90;;;;;;6163601;23;20099;-86
2023/08/21 12:30:58;;;;;;;2.40;1.30;;;26.00;99.90;;;;;;6163580;23;19916;-85
2023/08/21 12:33:23;;;;;;;;;;;26.00;99.90;;;;;;6163568;23;20079;-86
2023/08/21 12:35:49;;;;;;;4.13;1.70;;;26.00;99.90;;;;;;6163151;23;19922;-86
2023/08/21 12:38:24;;;;;;;;;;;26.10;99.90;;;;;;6163754;23;20052;-90
2023/08/21 12:40:50;;;;;;;3.78;1.50;;;26.10;99.90;;;;;;6188600;23;19966;-86
2023/08/21 12:43:16;;;;;;;;;;;26.10;99.90;;;;;;6163559;23;20016;-87
2023/08/21 12:45:45;;;;;;;2.47;1.20;;;25.80;99.90;;;;;;6164000;23;19916;-85
2023/08/21 12:48:13;;;;;;;1.65;1.10;;;26.00;99.90;;;;;;6165161;23;20031;-86
2023/08/21 12:50:39;;;;;;;2.25;1.13;;;25.90;99.90;;;;;;6165242;23;20074;-86
2023/08/21 12:53:12;;;;;;;;;;;25.70;99.90;;;;;;6190808;23;20024;-85
2023/08/21 12:55:42;;;;;;;3.58;2.20;;;25.40;99.90;;;;;;6164318;23;19922;-85
2023/08/21 12:58:08;;;;;;;4.05;2.05;;;25.20;1.00;;;;;;6188504;23;20025;-86
2023/08/21 13:00:34;;;;;;;;;;;25.20;1.00;;;;;;6188338;23;20024;-86
2023/08/21 13:03:03;;;;;;;2.20;1.27;;;25.30;34.70;;;;;;6190051;23;19923;-86
2023/08/21 13:05:34;;;;;;;3.70;1.80;;;25.50;1.00;;;;;;6189908;23;20483;-86
2023/08/21 13:08:00;;;;;;;5.40;1.30;;;25.70;99.90;;;;;;6189240;23;20023;-86
2023/08/21 13:10:28;;;;;;;;;;;25.80;99.90;;;;;;6165375;23;20017;-86